sensor_id;sensor_type;location;lat;lon;timestamp;temperature;humidity
74364;DHT22;62797;49.740;10.154;2023-02-26T00:00:18;-0.70;46.70
74364;DHT22;62797;49.740;10.154;2023-02-26T00:02:46;-0.70;46.50
74364;DHT22;62797;49.740;10.154;2023-02-26T00:05:14;-0.70;46.30
74364;DHT22;62797;49.740;10.154;2023-02-26T00:07:41;-0.70;48.90
74364;DHT22;62797;49.740;10.154;2023-02-26T00:10:09;-0.70;47.60
74364;DHT22;62797;49.740;10.154;2023-02-26T00:12:35;-0.70;46.60
74364;DHT22;62797;49.740;10.154;2023-02-26T00:15:02;-0.70;47.00
74364;DHT22;62797;49.740;10.154;2023-02-26T00:20:00;-0.80;45.90
74364;DHT22;62797;49.740;10.154;2023-02-26T00:22:26;-0.80;47.80
74364;DHT22;62797;49.740;10.154;2023-02-26T00:24:52;-0.80;47.30
74364;DHT22;62797;49.740;10.154;2023-02-26T00:27:18;-0.80;49.00
74364;DHT22;62797;49.740;10.154;2023-02-26T00:29:44;-0.80;49.30
74364;DHT22;62797;49.740;10.154;2023-02-26T00:32:11;-0.80;48.90
74364;DHT22;62797;49.740;10.154;2023-02-26T00:34:37;-0.80;48.20
74364;DHT22;62797;49.740;10.154;2023-02-26T00:37:22;-0.80;50.20
74364;DHT22;62797;49.740;10.154;2023-02-26T00:40:13;-0.70;50.00
74364;DHT22;62797;49.740;10.154;2023-02-26T00:42:40;-0.70;48.10
74364;DHT22;62797;49.740;10.154;2023-02-26T00:45:07;-0.70;48.10
74364;DHT22;62797;49.740;10.154;2023-02-26T00:50:16;-0.70;47.40
74364;DHT22;62797;49.740;10.154;2023-02-26T00:56:01;-0.60;47.80
74364;DHT22;62797;49.740;10.154;2023-02-26T00:58:27;-0.70;48.30
74364;DHT22;62797;49.740;10.154;2023-02-26T01:00:52;-0.70;48.30
74364;DHT22;62797;49.740;10.154;2023-02-26T01:03:18;-0.70;48.20
74364;DHT22;62797;49.740;10.154;2023-02-26T01:05:44;-0.70;48.20
74364;DHT22;62797;49.740;10.154;2023-02-26T01:08:18;-0.70;49.70
74364;DHT22;62797;49.740;10.154;2023-02-26T01:10:46;-0.70;49.90
74364;DHT22;62797;49.740;10.154;2023-02-26T01:13:12;-0.70;50.30
74364;DHT22;62797;49.740;10.154;2023-02-26T01:15:38;-0.80;48.60
74364;DHT22;62797;49.740;10.154;2023-02-26T01:18:15;-0.80;48.80
74364;DHT22;62797;49.740;10.154;2023-02-26T01:20:55;-0.90;50.70
74364;DHT22;62797;49.740;10.154;2023-02-26T01:23:25;-0.90;49.90
74364;DHT22;62797;49.740;10.154;2023-02-26T01:25:55;-0.90;53.00
74364;DHT22;62797;49.740;10.154;2023-02-26T01:28:23;-0.90;52.10
74364;DHT22;62797;49.740;10.154;2023-02-26T01:30:52;-0.90;51.60
74364;DHT22;62797;49.740;10.154;2023-02-26T01:33:29;-0.90;51.60
74364;DHT22;62797;49.740;10.154;2023-02-26T01:39:02;-1.00;50.80
74364;DHT22;62797;49.740;10.154;2023-02-26T01:47:16;-1.00;53.10
74364;DHT22;62797;49.740;10.154;2023-02-26T01:49:44;-1.00;52.00
74364;DHT22;62797;49.740;10.154;2023-02-26T01:55:25;-1.10;51.40
74364;DHT22;62797;49.740;10.154;2023-02-26T01:57:53;-1.20;49.80
74364;DHT22;62797;49.740;10.154;2023-02-26T02:00:20;-1.20;49.50
74364;DHT22;62797;49.740;10.154;2023-02-26T02:02:46;-1.20;48.50
74364;DHT22;62797;49.740;10.154;2023-02-26T02:05:30;-1.20;49.80
74364;DHT22;62797;49.740;10.154;2023-02-26T02:08:00;-1.20;50.90
74364;DHT22;62797;49.740;10.154;2023-02-26T02:10:27;-1.30;49.70
74364;DHT22;62797;49.740;10.154;2023-02-26T02:19:02;-1.30;51.10
74364;DHT22;62797;49.740;10.154;2023-02-26T02:24:24;-1.30;50.10
74364;DHT22;62797;49.740;10.154;2023-02-26T02:27:23;-1.30;48.90
74364;DHT22;62797;49.740;10.154;2023-02-26T02:29:52;-1.30;49.00
74364;DHT22;62797;49.740;10.154;2023-02-26T02:32:28;-1.40;50.30
74364;DHT22;62797;49.740;10.154;2023-02-26T02:35:50;-1.40;50.40
74364;DHT22;62797;49.740;10.154;2023-02-26T02:38:23;-1.50;49.50
74364;DHT22;62797;49.740;10.154;2023-02-26T02:40:53;-1.50;49.70
74364;DHT22;62797;49.740;10.154;2023-02-26T02:43:27;-1.50;51.20
74364;DHT22;62797;49.740;10.154;2023-02-26T02:48:40;-1.60;51.90
74364;DHT22;62797;49.740;10.154;2023-02-26T02:51:13;-1.60;50.80
74364;DHT22;62797;49.740;10.154;2023-02-26T02:54:06;-1.70;51.20
74364;DHT22;62797;49.740;10.154;2023-02-26T02:56:38;-1.70;51.30
74364;DHT22;62797;49.740;10.154;2023-02-26T03:01:47;-1.80;51.90
74364;DHT22;62797;49.740;10.154;2023-02-26T03:04:15;-1.80;54.70
74364;DHT22;62797;49.740;10.154;2023-02-26T03:06:42;-1.80;52.90
74364;DHT22;62797;49.740;10.154;2023-02-26T03:09:10;-1.80;51.90
74364;DHT22;62797;49.740;10.154;2023-02-26T03:11:39;-1.90;51.10
74364;DHT22;62797;49.740;10.154;2023-02-26T03:14:05;-1.90;51.70
74364;DHT22;62797;49.740;10.154;2023-02-26T03:30:52;-1.60;55.50
74364;DHT22;62797;49.740;10.154;2023-02-26T03:36:20;-1.60;52.80
74364;DHT22;62797;49.740;10.154;2023-02-26T03:39:25;-1.60;53.30
74364;DHT22;62797;49.740;10.154;2023-02-26T03:41:56;-1.50;53.50
74364;DHT22;62797;49.740;10.154;2023-02-26T03:44:28;-1.50;52.40
74364;DHT22;62797;49.740;10.154;2023-02-26T03:46:58;-1.40;52.90
74364;DHT22;62797;49.740;10.154;2023-02-26T03:49:32;-1.50;52.10
74364;DHT22;62797;49.740;10.154;2023-02-26T03:52:00;-1.40;52.40
74364;DHT22;62797;49.740;10.154;2023-02-26T03:54:48;-1.40;52.30
74364;DHT22;62797;49.740;10.154;2023-02-26T03:57:47;-1.40;52.40
74364;DHT22;62797;49.740;10.154;2023-02-26T04:00:22;-1.30;52.60
74364;DHT22;62797;49.740;10.154;2023-02-26T04:05:19;-1.20;52.60
74364;DHT22;62797;49.740;10.154;2023-02-26T04:07:47;-1.30;50.20
74364;DHT22;62797;49.740;10.154;2023-02-26T04:10:17;-1.30;51.80
74364;DHT22;62797;49.740;10.154;2023-02-26T04:12:43;-1.20;51.90
74364;DHT22;62797;49.740;10.154;2023-02-26T04:15:09;-1.30;50.50
74364;DHT22;62797;49.740;10.154;2023-02-26T04:17:35;-1.30;51.30
74364;DHT22;62797;49.740;10.154;2023-02-26T04:20:02;-1.30;51.60
74364;DHT22;62797;49.740;10.154;2023-02-26T04:22:33;-1.40;50.70
74364;DHT22;62797;49.740;10.154;2023-02-26T04:24:58;-1.40;51.50
74364;DHT22;62797;49.740;10.154;2023-02-26T04:27:24;-1.40;51.10
74364;DHT22;62797;49.740;10.154;2023-02-26T04:29:50;-1.40;51.40
74364;DHT22;62797;49.740;10.154;2023-02-26T04:32:15;-1.40;51.80
74364;DHT22;62797;49.740;10.154;2023-02-26T04:34:41;-1.40;52.60
74364;DHT22;62797;49.740;10.154;2023-02-26T04:37:07;-1.40;52.00
74364;DHT22;62797;49.740;10.154;2023-02-26T04:39:35;-1.40;51.30
74364;DHT22;62797;49.740;10.154;2023-02-26T04:42:01;-1.40;52.10
74364;DHT22;62797;49.740;10.154;2023-02-26T04:44:30;-1.40;52.60
74364;DHT22;62797;49.740;10.154;2023-02-26T04:46:56;-1.40;52.70
74364;DHT22;62797;49.740;10.154;2023-02-26T04:49:22;-1.40;52.90
74364;DHT22;62797;49.740;10.154;2023-02-26T04:51:48;-1.40;52.70
74364;DHT22;62797;49.740;10.154;2023-02-26T04:54:15;-1.50;52.90
74364;DHT22;62797;49.740;10.154;2023-02-26T04:56:41;-1.50;52.90
74364;DHT22;62797;49.740;10.154;2023-02-26T04:59:06;-1.50;52.30
74364;DHT22;62797;49.740;10.154;2023-02-26T05:01:33;-1.50;53.70
74364;DHT22;62797;49.740;10.154;2023-02-26T05:04:03;-1.50;52.90
74364;DHT22;62797;49.740;10.154;2023-02-26T05:06:29;-1.40;52.60
74364;DHT22;62797;49.740;10.154;2023-02-26T05:08:54;-1.40;51.90
74364;DHT22;62797;49.740;10.154;2023-02-26T05:11:20;-1.40;52.90
74364;DHT22;62797;49.740;10.154;2023-02-26T05:13:46;-1.40;52.70
74364;DHT22;62797;49.740;10.154;2023-02-26T05:16:12;-1.30;52.40
74364;DHT22;62797;49.740;10.154;2023-02-26T05:18:37;-1.20;53.30
74364;DHT22;62797;49.740;10.154;2023-02-26T05:21:03;-1.20;52.10
74364;DHT22;62797;49.740;10.154;2023-02-26T05:23:31;-1.20;52.60
74364;DHT22;62797;49.740;10.154;2023-02-26T05:25:57;-1.10;52.40
74364;DHT22;62797;49.740;10.154;2023-02-26T05:28:24;-1.10;51.60
74364;DHT22;62797;49.740;10.154;2023-02-26T05:30:50;-1.10;51.70
74364;DHT22;62797;49.740;10.154;2023-02-26T05:33:15;-1.10;50.00
74364;DHT22;62797;49.740;10.154;2023-02-26T05:35:44;-1.10;51.80
74364;DHT22;62797;49.740;10.154;2023-02-26T05:38:10;-1.10;50.50
74364;DHT22;62797;49.740;10.154;2023-02-26T05:40:36;-1.00;51.20
74364;DHT22;62797;49.740;10.154;2023-02-26T05:43:02;-0.90;50.90
74364;DHT22;62797;49.740;10.154;2023-02-26T05:45:27;-0.90;51.40
74364;DHT22;62797;49.740;10.154;2023-02-26T05:47:53;-0.90;51.00
74364;DHT22;62797;49.740;10.154;2023-02-26T05:50:19;-0.80;51.60
74364;DHT22;62797;49.740;10.154;2023-02-26T05:52:44;-0.80;50.60
74364;DHT22;62797;49.740;10.154;2023-02-26T05:55:11;-0.80;50.20
74364;DHT22;62797;49.740;10.154;2023-02-26T05:57:37;-0.80;50.40
74364;DHT22;62797;49.740;10.154;2023-02-26T06:00:04;-0.80;50.40
74364;DHT22;62797;49.740;10.154;2023-02-26T06:02:38;-0.80;50.10
74364;DHT22;62797;49.740;10.154;2023-02-26T06:05:04;-0.70;50.90
74364;DHT22;62797;49.740;10.154;2023-02-26T06:07:30;-0.70;50.20
74364;DHT22;62797;49.740;10.154;2023-02-26T06:09:55;-0.70;50.30
74364;DHT22;62797;49.740;10.154;2023-02-26T06:12:21;-0.70;49.60
74364;DHT22;62797;49.740;10.154;2023-02-26T06:14:46;-0.70;50.10
74364;DHT22;62797;49.740;10.154;2023-02-26T06:17:12;-0.70;49.80
74364;DHT22;62797;49.740;10.154;2023-02-26T06:19:38;-0.60;49.60
74364;DHT22;62797;49.740;10.154;2023-02-26T06:22:03;-0.60;49.80
74364;DHT22;62797;49.740;10.154;2023-02-26T06:24:29;-0.60;49.50
74364;DHT22;62797;49.740;10.154;2023-02-26T06:26:54;-0.60;48.60
74364;DHT22;62797;49.740;10.154;2023-02-26T06:29:20;-0.60;49.00
74364;DHT22;62797;49.740;10.154;2023-02-26T06:31:46;-0.50;49.10
74364;DHT22;62797;49.740;10.154;2023-02-26T06:34:12;-0.50;50.10
74364;DHT22;62797;49.740;10.154;2023-02-26T06:36:38;-0.50;49.50
74364;DHT22;62797;49.740;10.154;2023-02-26T06:39:04;-0.50;49.20
74364;DHT22;62797;49.740;10.154;2023-02-26T06:41:30;-0.50;49.70
74364;DHT22;62797;49.740;10.154;2023-02-26T06:43:55;-0.50;49.10
74364;DHT22;62797;49.740;10.154;2023-02-26T06:46:21;-0.50;49.30
74364;DHT22;62797;49.740;10.154;2023-02-26T06:48:46;-0.50;49.20
74364;DHT22;62797;49.740;10.154;2023-02-26T06:51:12;-0.50;48.50
74364;DHT22;62797;49.740;10.154;2023-02-26T06:53:38;-0.50;49.10
74364;DHT22;62797;49.740;10.154;2023-02-26T06:56:04;-0.40;49.70
74364;DHT22;62797;49.740;10.154;2023-02-26T06:58:29;-0.40;48.60
74364;DHT22;62797;49.740;10.154;2023-02-26T07:00:55;-0.30;49.30
74364;DHT22;62797;49.740;10.154;2023-02-26T07:03:23;-0.30;48.50
74364;DHT22;62797;49.740;10.154;2023-02-26T07:05:49;-0.30;48.40
74364;DHT22;62797;49.740;10.154;2023-02-26T07:08:14;-0.20;49.00
74364;DHT22;62797;49.740;10.154;2023-02-26T07:10:42;-0.20;48.10
74364;DHT22;62797;49.740;10.154;2023-02-26T07:13:08;-0.10;48.80
74364;DHT22;62797;49.740;10.154;2023-02-26T07:15:34;-0.20;48.40
74364;DHT22;62797;49.740;10.154;2023-02-26T07:17:59;-0.20;49.00
74364;DHT22;62797;49.740;10.154;2023-02-26T07:20:26;-0.20;49.10
74364;DHT22;62797;49.740;10.154;2023-02-26T07:22:51;-0.30;48.60
74364;DHT22;62797;49.740;10.154;2023-02-26T07:25:17;-0.30;49.30
74364;DHT22;62797;49.740;10.154;2023-02-26T07:27:43;-0.30;49.60
74364;DHT22;62797;49.740;10.154;2023-02-26T07:30:09;-0.30;49.80
74364;DHT22;62797;49.740;10.154;2023-02-26T07:32:35;-0.30;50.20
74364;DHT22;62797;49.740;10.154;2023-02-26T07:35:01;-0.30;51.30
74364;DHT22;62797;49.740;10.154;2023-02-26T07:37:27;-0.20;50.50
74364;DHT22;62797;49.740;10.154;2023-02-26T07:39:53;-0.20;50.50
74364;DHT22;62797;49.740;10.154;2023-02-26T07:42:19;-0.20;50.30
74364;DHT22;62797;49.740;10.154;2023-02-26T07:44:44;-0.10;50.70
74364;DHT22;62797;49.740;10.154;2023-02-26T07:47:10;0.10;50.90
74364;DHT22;62797;49.740;10.154;2023-02-26T07:49:36;0.10;50.00
74364;DHT22;62797;49.740;10.154;2023-02-26T07:52:02;0.20;49.30
74364;DHT22;62797;49.740;10.154;2023-02-26T07:54:28;0.20;48.70
74364;DHT22;62797;49.740;10.154;2023-02-26T07:56:54;0.20;48.60
74364;DHT22;62797;49.740;10.154;2023-02-26T07:59:19;0.20;48.30
74364;DHT22;62797;49.740;10.154;2023-02-26T08:01:45;0.30;49.10
74364;DHT22;62797;49.740;10.154;2023-02-26T08:04:10;0.40;49.00
74364;DHT22;62797;49.740;10.154;2023-02-26T08:06:36;0.50;47.60
74364;DHT22;62797;49.740;10.154;2023-02-26T08:09:03;0.50;48.30
74364;DHT22;62797;49.740;10.154;2023-02-26T08:11:28;0.60;46.50
74364;DHT22;62797;49.740;10.154;2023-02-26T08:13:54;0.60;46.10
74364;DHT22;62797;49.740;10.154;2023-02-26T08:16:20;0.60;46.50
74364;DHT22;62797;49.740;10.154;2023-02-26T08:18:45;0.70;46.20
74364;DHT22;62797;49.740;10.154;2023-02-26T08:21:11;0.70;45.90
74364;DHT22;62797;49.740;10.154;2023-02-26T08:23:37;0.80;46.30
74364;DHT22;62797;49.740;10.154;2023-02-26T08:26:05;0.90;45.60
74364;DHT22;62797;49.740;10.154;2023-02-26T08:28:31;1.00;44.80
74364;DHT22;62797;49.740;10.154;2023-02-26T08:30:58;1.00;43.60
74364;DHT22;62797;49.740;10.154;2023-02-26T08:33:24;1.00;44.80
74364;DHT22;62797;49.740;10.154;2023-02-26T08:35:50;1.00;44.20
74364;DHT22;62797;49.740;10.154;2023-02-26T08:38:16;1.00;44.60
74364;DHT22;62797;49.740;10.154;2023-02-26T08:40:42;1.00;44.40
74364;DHT22;62797;49.740;10.154;2023-02-26T08:43:08;1.10;44.60
74364;DHT22;62797;49.740;10.154;2023-02-26T08:45:36;1.10;45.40
74364;DHT22;62797;49.740;10.154;2023-02-26T08:48:02;1.30;45.10
74364;DHT22;62797;49.740;10.154;2023-02-26T08:50:28;1.40;44.60
74364;DHT22;62797;49.740;10.154;2023-02-26T08:52:54;1.40;43.70
74364;DHT22;62797;49.740;10.154;2023-02-26T08:55:20;1.40;43.40
74364;DHT22;62797;49.740;10.154;2023-02-26T08:57:46;1.40;42.80
74364;DHT22;62797;49.740;10.154;2023-02-26T09:00:12;1.30;43.30
74364;DHT22;62797;49.740;10.154;2023-02-26T09:02:41;1.30;43.60
74364;DHT22;62797;49.740;10.154;2023-02-26T09:05:07;1.30;42.50
74364;DHT22;62797;49.740;10.154;2023-02-26T09:07:33;1.40;42.40
74364;DHT22;62797;49.740;10.154;2023-02-26T09:09:59;1.50;42.50
74364;DHT22;62797;49.740;10.154;2023-02-26T09:12:24;1.40;42.40
74364;DHT22;62797;49.740;10.154;2023-02-26T09:14:50;1.50;42.60
74364;DHT22;62797;49.740;10.154;2023-02-26T09:17:15;1.70;42.80
74364;DHT22;62797;49.740;10.154;2023-02-26T09:19:41;2.00;42.10
74364;DHT22;62797;49.740;10.154;2023-02-26T09:22:07;2.20;41.00
74364;DHT22;62797;49.740;10.154;2023-02-26T09:24:33;2.50;40.30
74364;DHT22;62797;49.740;10.154;2023-02-26T09:26:59;2.60;38.50
74364;DHT22;62797;49.740;10.154;2023-02-26T09:29:25;2.60;37.10
74364;DHT22;62797;49.740;10.154;2023-02-26T09:31:51;2.50;37.00
74364;DHT22;62797;49.740;10.154;2023-02-26T09:34:16;2.40;38.30
74364;DHT22;62797;49.740;10.154;2023-02-26T09:36:42;2.50;36.70
74364;DHT22;62797;49.740;10.154;2023-02-26T09:39:08;2.40;36.70
74364;DHT22;62797;49.740;10.154;2023-02-26T09:41:51;2.40;38.00
74364;DHT22;62797;49.740;10.154;2023-02-26T09:44:23;2.50;36.00
74364;DHT22;62797;49.740;10.154;2023-02-26T09:47:11;2.70;37.00
74364;DHT22;62797;49.740;10.154;2023-02-26T09:49:54;2.60;35.60
74364;DHT22;62797;49.740;10.154;2023-02-26T09:55:14;2.60;36.20
74364;DHT22;62797;49.740;10.154;2023-02-26T09:57:43;2.70;35.60
74364;DHT22;62797;49.740;10.154;2023-02-26T10:06:03;2.70;36.30
74364;DHT22;62797;49.740;10.154;2023-02-26T10:08:37;2.60;35.50
74364;DHT22;62797;49.740;10.154;2023-02-26T10:11:17;2.70;36.70
74364;DHT22;62797;49.740;10.154;2023-02-26T10:13:51;2.70;35.60
74364;DHT22;62797;49.740;10.154;2023-02-26T10:16:21;2.50;34.80
74364;DHT22;62797;49.740;10.154;2023-02-26T10:19:05;2.50;35.40
74364;DHT22;62797;49.740;10.154;2023-02-26T10:21:44;2.60;36.00
74364;DHT22;62797;49.740;10.154;2023-02-26T10:24:25;2.60;35.50
74364;DHT22;62797;49.740;10.154;2023-02-26T10:26:57;2.70;35.90
74364;DHT22;62797;49.740;10.154;2023-02-26T10:29:27;2.70;36.50
74364;DHT22;62797;49.740;10.154;2023-02-26T10:34:58;2.80;37.70
74364;DHT22;62797;49.740;10.154;2023-02-26T10:38:00;2.90;37.10
74364;DHT22;62797;49.740;10.154;2023-02-26T10:43:38;2.90;35.60
74364;DHT22;62797;49.740;10.154;2023-02-26T10:46:24;2.80;34.50
74364;DHT22;62797;49.740;10.154;2023-02-26T10:51:23;3.20;34.30
74364;DHT22;62797;49.740;10.154;2023-02-26T10:53:54;3.10;33.70
74364;DHT22;62797;49.740;10.154;2023-02-26T10:56:26;3.00;35.00
74364;DHT22;62797;49.740;10.154;2023-02-26T10:58:53;3.00;35.00
74364;DHT22;62797;49.740;10.154;2023-02-26T11:01:21;3.10;35.70
74364;DHT22;62797;49.740;10.154;2023-02-26T11:03:53;3.20;34.30
74364;DHT22;62797;49.740;10.154;2023-02-26T11:06:27;3.10;33.90
74364;DHT22;62797;49.740;10.154;2023-02-26T11:08:55;3.30;35.50
74364;DHT22;62797;49.740;10.154;2023-02-26T11:14:04;3.40;32.40
74364;DHT22;62797;49.740;10.154;2023-02-26T11:16:31;3.30;32.90
74364;DHT22;62797;49.740;10.154;2023-02-26T11:18:57;3.50;33.70
74364;DHT22;62797;49.740;10.154;2023-02-26T11:21:35;3.80;35.20
74364;DHT22;62797;49.740;10.154;2023-02-26T11:24:16;4.00;33.50
74364;DHT22;62797;49.740;10.154;2023-02-26T11:26:46;4.20;32.40
74364;DHT22;62797;49.740;10.154;2023-02-26T11:29:21;4.30;33.10
74364;DHT22;62797;49.740;10.154;2023-02-26T11:31:54;4.30;31.20
74364;DHT22;62797;49.740;10.154;2023-02-26T11:34:24;4.10;30.00
74364;DHT22;62797;49.740;10.154;2023-02-26T11:36:52;4.20;31.60
74364;DHT22;62797;49.740;10.154;2023-02-26T11:39:25;4.30;29.90
74364;DHT22;62797;49.740;10.154;2023-02-26T11:41:55;4.30;28.30
74364;DHT22;62797;49.740;10.154;2023-02-26T11:44:39;4.40;28.40
74364;DHT22;62797;49.740;10.154;2023-02-26T11:47:16;4.30;25.90
74364;DHT22;62797;49.740;10.154;2023-02-26T11:49:48;4.30;27.70
74364;DHT22;62797;49.740;10.154;2023-02-26T11:55:02;4.40;29.10
74364;DHT22;62797;49.740;10.154;2023-02-26T11:57:30;4.50;29.10
74364;DHT22;62797;49.740;10.154;2023-02-26T11:59:59;4.30;28.40
74364;DHT22;62797;49.740;10.154;2023-02-26T12:02:30;4.10;27.80
74364;DHT22;62797;49.740;10.154;2023-02-26T12:04:59;4.00;28.20
74364;DHT22;62797;49.740;10.154;2023-02-26T12:07:26;3.90;28.80
74364;DHT22;62797;49.740;10.154;2023-02-26T12:09:52;3.90;28.40
74364;DHT22;62797;49.740;10.154;2023-02-26T12:12:36;3.80;28.30
74364;DHT22;62797;49.740;10.154;2023-02-26T12:15:20;3.70;28.30
74364;DHT22;62797;49.740;10.154;2023-02-26T12:39:54;3.70;27.80
74364;DHT22;62797;49.740;10.154;2023-02-26T12:42:27;3.90;27.70
74364;DHT22;62797;49.740;10.154;2023-02-26T12:47:45;4.00;27.70
74364;DHT22;62797;49.740;10.154;2023-02-26T12:50:36;4.00;27.10
74364;DHT22;62797;49.740;10.154;2023-02-26T13:02:21;3.90;27.00
74364;DHT22;62797;49.740;10.154;2023-02-26T13:10:50;4.00;28.90
74364;DHT22;62797;49.740;10.154;2023-02-26T13:16:19;4.10;28.10
74364;DHT22;62797;49.740;10.154;2023-02-26T13:21:22;4.10;26.60
74364;DHT22;62797;49.740;10.154;2023-02-26T13:23:55;4.00;26.10
74364;DHT22;62797;49.740;10.154;2023-02-26T13:26:23;4.10;27.10
74364;DHT22;62797;49.740;10.154;2023-02-26T13:31:24;4.30;25.90
74364;DHT22;62797;49.740;10.154;2023-02-26T13:33:50;4.40;25.10
74364;DHT22;62797;49.740;10.154;2023-02-26T13:36:19;4.30;25.80
74364;DHT22;62797;49.740;10.154;2023-02-26T13:50:25;6.70;21.40
74364;DHT22;62797;49.740;10.154;2023-02-26T13:52:55;6.20;21.80
74364;DHT22;62797;49.740;10.154;2023-02-26T13:55:44;6.20;24.50
74364;DHT22;62797;49.740;10.154;2023-02-26T14:01:06;7.60;20.60
74364;DHT22;62797;49.740;10.154;2023-02-26T14:03:42;7.60;18.00
74364;DHT22;62797;49.740;10.154;2023-02-26T14:06:43;7.00;18.20
74364;DHT22;62797;49.740;10.154;2023-02-26T14:19:42;5.50;22.30
74364;DHT22;62797;49.740;10.154;2023-02-26T14:22:20;5.90;21.80
74364;DHT22;62797;49.740;10.154;2023-02-26T14:24:53;6.30;20.70
74364;DHT22;62797;49.740;10.154;2023-02-26T14:30:03;6.30;18.80
74364;DHT22;62797;49.740;10.154;2023-02-26T14:35:21;6.50;18.30
74364;DHT22;62797;49.740;10.154;2023-02-26T14:38:04;6.80;21.10
74364;DHT22;62797;49.740;10.154;2023-02-26T14:40:48;7.40;17.80
74364;DHT22;62797;49.740;10.154;2023-02-26T14:43:39;8.00;17.60
74364;DHT22;62797;49.740;10.154;2023-02-26T14:46:06;7.90;15.50
74364;DHT22;62797;49.740;10.154;2023-02-26T14:48:32;8.10;15.60
74364;DHT22;62797;49.740;10.154;2023-02-26T14:57:14;8.90;14.80
74364;DHT22;62797;49.740;10.154;2023-02-26T15:08:22;7.50;14.40
74364;DHT22;62797;49.740;10.154;2023-02-26T15:11:10;7.20;17.70
74364;DHT22;62797;49.740;10.154;2023-02-26T15:14:17;8.20;15.30
74364;DHT22;62797;49.740;10.154;2023-02-26T15:22:55;8.20;11.80
74364;DHT22;62797;49.740;10.154;2023-02-26T15:25:31;7.70;14.30
74364;DHT22;62797;49.740;10.154;2023-02-26T15:28:00;7.90;13.90
74364;DHT22;62797;49.740;10.154;2023-02-26T15:30:28;7.40;13.60
74364;DHT22;62797;49.740;10.154;2023-02-26T15:32:56;7.10;14.30
74364;DHT22;62797;49.740;10.154;2023-02-26T15:35:27;6.90;14.80
74364;DHT22;62797;49.740;10.154;2023-02-26T15:37:55;6.80;15.10
74364;DHT22;62797;49.740;10.154;2023-02-26T15:40:23;6.50;15.00
74364;DHT22;62797;49.740;10.154;2023-02-26T15:42:52;6.00;15.40
74364;DHT22;62797;49.740;10.154;2023-02-26T15:45:23;5.40;16.20
74364;DHT22;62797;49.740;10.154;2023-02-26T15:47:54;5.10;16.60
74364;DHT22;62797;49.740;10.154;2023-02-26T15:50:24;4.90;18.20
74364;DHT22;62797;49.740;10.154;2023-02-26T15:52:54;4.90;18.30
74364;DHT22;62797;49.740;10.154;2023-02-26T15:55:20;4.80;17.40
74364;DHT22;62797;49.740;10.154;2023-02-26T15:57:47;4.60;17.30
74364;DHT22;62797;49.740;10.154;2023-02-26T16:00:18;4.30;17.20
74364;DHT22;62797;49.740;10.154;2023-02-26T16:02:53;3.90;17.30
74364;DHT22;62797;49.740;10.154;2023-02-26T16:05:22;3.50;18.40
74364;DHT22;62797;49.740;10.154;2023-02-26T16:07:48;3.50;19.20
74364;DHT22;62797;49.740;10.154;2023-02-26T16:10:31;3.30;19.30
74364;DHT22;62797;49.740;10.154;2023-02-26T16:12:58;3.10;18.40
74364;DHT22;62797;49.740;10.154;2023-02-26T16:15:36;3.00;18.30
74364;DHT22;62797;49.740;10.154;2023-02-26T16:18:05;2.90;19.10
74364;DHT22;62797;49.740;10.154;2023-02-26T16:20:40;2.80;20.00
74364;DHT22;62797;49.740;10.154;2023-02-26T16:23:55;2.70;19.10
74364;DHT22;62797;49.740;10.154;2023-02-26T16:26:04;2.50;19.50
74364;DHT22;62797;49.740;10.154;2023-02-26T16:28:38;2.40;19.40
74364;DHT22;62797;49.740;10.154;2023-02-26T16:31:21;2.30;19.70
74364;DHT22;62797;49.740;10.154;2023-02-26T16:34:31;2.40;19.80
74364;DHT22;62797;49.740;10.154;2023-02-26T16:36:58;2.30;20.50
74364;DHT22;62797;49.740;10.154;2023-02-26T16:39:34;2.30;20.60
74364;DHT22;62797;49.740;10.154;2023-02-26T16:42:14;2.10;20.60
74364;DHT22;62797;49.740;10.154;2023-02-26T16:44:57;2.00;21.30
74364;DHT22;62797;49.740;10.154;2023-02-26T16:47:29;1.90;20.80
74364;DHT22;62797;49.740;10.154;2023-02-26T16:49:55;1.70;21.20
74364;DHT22;62797;49.740;10.154;2023-02-26T16:52:24;1.60;21.60
74364;DHT22;62797;49.740;10.154;2023-02-26T16:54:55;1.60;21.90
74364;DHT22;62797;49.740;10.154;2023-02-26T16:57:31;1.50;22.40
74364;DHT22;62797;49.740;10.154;2023-02-26T17:00:00;1.50;21.90
74364;DHT22;62797;49.740;10.154;2023-02-26T17:02:31;1.40;23.00
74364;DHT22;62797;49.740;10.154;2023-02-26T17:05:02;1.30;22.70
74364;DHT22;62797;49.740;10.154;2023-02-26T17:07:32;1.30;23.10
74364;DHT22;62797;49.740;10.154;2023-02-26T17:10:08;1.30;23.30
74364;DHT22;62797;49.740;10.154;2023-02-26T17:13:01;1.20;23.40
74364;DHT22;62797;49.740;10.154;2023-02-26T17:15:36;1.10;24.70
74364;DHT22;62797;49.740;10.154;2023-02-26T17:18:02;1.00;24.70
74364;DHT22;62797;49.740;10.154;2023-02-26T17:20:29;0.90;25.00
74364;DHT22;62797;49.740;10.154;2023-02-26T17:22:56;0.80;25.60
74364;DHT22;62797;49.740;10.154;2023-02-26T17:25:22;0.70;26.30
74364;DHT22;62797;49.740;10.154;2023-02-26T17:27:50;0.60;25.90
74364;DHT22;62797;49.740;10.154;2023-02-26T17:30:19;0.60;25.60
74364;DHT22;62797;49.740;10.154;2023-02-26T17:32:46;0.50;26.80
74364;DHT22;62797;49.740;10.154;2023-02-26T17:35:13;0.40;27.00
74364;DHT22;62797;49.740;10.154;2023-02-26T17:37:40;0.30;27.40
74364;DHT22;62797;49.740;10.154;2023-02-26T17:40:17;0.30;27.20
74364;DHT22;62797;49.740;10.154;2023-02-26T17:42:45;0.30;27.00
74364;DHT22;62797;49.740;10.154;2023-02-26T17:45:11;0.20;26.90
74364;DHT22;62797;49.740;10.154;2023-02-26T17:47:36;0.20;27.20
74364;DHT22;62797;49.740;10.154;2023-02-26T17:50:56;0.10;27.50
74364;DHT22;62797;49.740;10.154;2023-02-26T17:52:59;0.10;27.60
74364;DHT22;62797;49.740;10.154;2023-02-26T17:55:25;0.00;28.00
74364;DHT22;62797;49.740;10.154;2023-02-26T17:57:50;0.00;27.70
74364;DHT22;62797;49.740;10.154;2023-02-26T18:00:17;0.00;27.20
74364;DHT22;62797;49.740;10.154;2023-02-26T18:02:43;-0.10;27.70
74364;DHT22;62797;49.740;10.154;2023-02-26T18:05:09;-0.10;27.60
74364;DHT22;62797;49.740;10.154;2023-02-26T18:07:34;-0.10;28.20
74364;DHT22;62797;49.740;10.154;2023-02-26T18:10:00;-0.10;28.30
74364;DHT22;62797;49.740;10.154;2023-02-26T18:12:26;-0.20;29.00
74364;DHT22;62797;49.740;10.154;2023-02-26T18:14:51;-0.20;28.90
74364;DHT22;62797;49.740;10.154;2023-02-26T18:17:24;-0.30;29.60
74364;DHT22;62797;49.740;10.154;2023-02-26T18:19:50;-0.30;29.10
74364;DHT22;62797;49.740;10.154;2023-02-26T18:22:17;-0.30;29.00
74364;DHT22;62797;49.740;10.154;2023-02-26T18:24:44;-0.40;29.50
74364;DHT22;62797;49.740;10.154;2023-02-26T18:27:19;-0.40;29.10
74364;DHT22;62797;49.740;10.154;2023-02-26T18:29:46;-0.50;30.00
74364;DHT22;62797;49.740;10.154;2023-02-26T18:32:19;-0.50;30.40
74364;DHT22;62797;49.740;10.154;2023-02-26T18:34:45;-0.50;30.00
74364;DHT22;62797;49.740;10.154;2023-02-26T18:37:13;-0.50;30.10